createdAt,value
2018-05-07T00:01:37.718Z,17.06
2018-05-07T00:07:32.732Z,18.32
2018-05-07T00:13:27.680Z,18.21
2018-05-07T00:19:22.687Z,17.92
2018-05-07T00:25:17.708Z,19.27
2018-05-07T00:31:12.724Z,18.79
2018-05-07T00:37:07.704Z,18.67
2018-05-07T00:43:02.759Z,19.42
2018-05-07T00:48:57.740Z,18.57
2018-05-07T00:54:52.692Z,19.75
2018-05-07T01:00:47.769Z,20.15
2018-05-07T01:06:42.798Z,20.93
2018-05-07T01:12:37.821Z,20.75
2018-05-07T01:18:32.773Z,20.13
2018-05-07T01:24:27.843Z,20.12
2018-05-07T01:30:22.771Z,21.73
2018-05-07T01:36:17.749Z,21.29
2018-05-07T01:42:12.763Z,21.44
2018-05-07T01:48:07.780Z,20.92
2018-05-07T01:54:02.796Z,21.96
2018-05-07T01:59:57.792Z,22.13
2018-05-07T02:05:52.754Z,23.25
2018-05-07T02:11:47.770Z,22.68
2018-05-07T02:17:42.763Z,22.26
2018-05-07T02:23:37.771Z,22.34
2018-05-07T02:29:32.811Z,23.4
2018-05-07T02:35:27.778Z,20.47
2018-05-07T02:41:22.777Z,21.77
2018-05-07T02:47:17.832Z,23.67
2018-05-07T02:53:12.775Z,21.6
2018-05-07T02:59:07.795Z,24.4
2018-05-07T03:05:02.845Z,27.33
2018-05-07T03:10:57.811Z,26.26
2018-05-07T03:16:52.920Z,26.82
2018-05-07T03:22:47.804Z,26.45
2018-05-07T03:28:42.871Z,26.92
2018-05-07T03:34:37.804Z,27.12
2018-05-07T03:40:32.911Z,27.67
2018-05-07T03:46:27.929Z,29.06
2018-05-07T03:52:22.844Z,28.19
2018-05-07T03:58:17.835Z,28.47
2018-05-07T04:04:12.851Z,28.53
2018-05-07T04:10:07.876Z,27.59
2018-05-07T04:16:02.836Z,29.23
2018-05-07T04:21:57.865Z,28.12
2018-05-07T04:27:52.894Z,29
2018-05-07T04:33:47.917Z,28.67
2018-05-07T04:39:42.848Z,28.86
2018-05-07T04:45:37.886Z,29.18
2018-05-07T04:51:32.876Z,29.78
2018-05-07T04:57:27.880Z,29.34
2018-05-07T05:03:22.892Z,26.56
2018-05-07T05:09:17.896Z,28.38
2018-05-07T05:15:12.892Z,26.78
2018-05-07T05:21:08.017Z,27.46
2018-05-07T05:27:02.901Z,27.1
2018-05-07T05:32:57.908Z,29.47
2018-05-07T05:38:52.967Z,27.83
2018-05-07T05:44:47.877Z,28.29
2018-05-07T05:50:42.915Z,28.1
2018-05-07T05:56:37.917Z,27.24
2018-05-07T06:02:32.935Z,29.6
2018-05-07T06:08:27.950Z,29.35
2018-05-07T06:14:22.937Z,28.77
2018-05-07T06:20:17.949Z,28.28
2018-05-07T06:26:12.930Z,30.45
2018-05-07T06:32:08.029Z,28.95
2018-05-07T06:38:02.952Z,27.24
2018-05-07T06:43:57.935Z,26.09
2018-05-07T06:49:52.955Z,27.92
2018-05-07T06:55:47.946Z,25.34
2018-05-07T07:01:43.030Z,25.61
2018-05-07T07:07:38.003Z,25.76
2018-05-07T07:13:32.967Z,25.82
2018-05-07T07:19:27.994Z,26.63
2018-05-07T07:25:22.990Z,23.63
2018-05-07T07:31:18.018Z,25.68
2018-05-07T07:37:12.988Z,24.36
2018-05-07T07:43:08.021Z,24.67
2018-05-07T07:49:02.987Z,25.5
2018-05-07T07:54:57.987Z,22.15
2018-05-07T08:00:53.042Z,23.71
2018-05-07T08:06:48.014Z,23.89
2018-05-07T08:12:43.018Z,23.43
2018-05-07T08:18:38.068Z,22.71
2018-05-07T08:24:33.091Z,23.96
2018-05-07T08:30:28.173Z,19.86
2018-05-07T08:36:23.018Z,19.07
2018-05-07T08:42:18.136Z,17.45
2018-05-07T08:48:13.059Z,18.34
2018-05-07T08:54:08.066Z,17.07
2018-05-07T09:00:03.609Z,15.82
2018-05-07T09:05:58.061Z,17.73
2018-05-07T09:11:53.086Z,15.46
2018-05-07T09:17:48.066Z,15.68
2018-05-07T09:23:43.053Z,15.81
2018-05-07T09:29:38.071Z,13.7
2018-05-07T09:35:33.097Z,13.64
2018-05-07T09:41:28.099Z,13.71
2018-05-07T09:47:23.086Z,12.63
2018-05-07T09:53:18.094Z,10.8
2018-05-07T09:59:13.101Z,12.38
2018-05-07T10:05:08.184Z,10.18
2018-05-07T10:11:03.096Z,9.8
2018-05-07T10:16:58.183Z,9.89
2018-05-07T10:22:53.090Z,8.73
2018-05-07T10:28:48.110Z,8.11
2018-05-07T10:34:43.127Z,7.61
2018-05-07T10:40:38.133Z,8.02
2018-05-07T10:46:33.145Z,7.07
2018-05-07T10:52:28.231Z,7.6
2018-05-07T10:58:23.130Z,8.06
2018-05-07T11:04:18.153Z,8.03
2018-05-07T11:10:13.174Z,8.38
2018-05-07T11:16:08.146Z,7.67
2018-05-07T11:22:03.202Z,7.87
2018-05-07T11:27:58.170Z,7.78
2018-05-07T11:33:53.244Z,6.27
2018-05-07T11:39:48.157Z,5.59
2018-05-07T11:45:43.254Z,5.16
2018-05-07T11:51:38.220Z,4.56
2018-05-07T11:57:33.211Z,4.63
2018-05-07T12:03:28.218Z,4.82
2018-05-07T12:09:23.223Z,4.77
2018-05-07T12:15:18.246Z,4.74
2018-05-07T12:21:13.274Z,4.59
2018-05-07T12:27:08.243Z,4.77
2018-05-07T12:33:03.298Z,4.87
2018-05-07T12:38:58.201Z,5.37
2018-05-07T12:44:53.223Z,6.45
2018-05-07T12:50:48.243Z,4.81
2018-05-07T12:56:43.256Z,5.44
2018-05-07T13:02:38.246Z,5.5
2018-05-07T13:08:33.299Z,5.58
2018-05-07T13:14:28.261Z,6.47
2018-05-07T13:20:23.296Z,6.93
2018-05-07T13:26:18.276Z,9.42
2018-05-07T13:32:13.299Z,9.14
2018-05-07T13:38:08.279Z,8.73
2018-05-07T13:44:03.323Z,8.86
2018-05-07T13:49:58.273Z,8.55
2018-05-07T13:55:53.336Z,8.03
2018-05-07T14:01:48.378Z,8.56
2018-05-07T14:07:43.289Z,9
2018-05-07T14:13:38.341Z,9.84
2018-05-07T14:19:33.316Z,7.91
2018-05-07T14:25:28.399Z,9.53
2018-05-07T14:31:23.317Z,10.88
2018-05-07T14:37:18.324Z,10.92
2018-05-07T14:43:13.330Z,11.45
2018-05-07T14:49:08.334Z,11.49
2018-05-07T14:55:03.394Z,13.33
2018-05-07T15:00:58.348Z,13.48
2018-05-07T15:06:53.384Z,13.15
2018-05-07T15:12:48.370Z,12.83
2018-05-07T15:18:43.340Z,13.45
2018-05-07T15:24:38.423Z,12.92
2018-05-07T15:30:33.372Z,13.32
2018-05-07T15:36:28.424Z,14.15
2018-05-07T15:42:23.397Z,12.88
2018-05-07T15:48:18.389Z,12.2
2018-05-07T15:54:13.376Z,13.91
2018-05-07T16:00:08.446Z,14.18
2018-05-07T16:06:03.463Z,14.75
2018-05-07T16:11:58.395Z,15.08
2018-05-07T16:17:53.415Z,14.85
2018-05-07T16:23:48.429Z,14.12
2018-05-07T16:29:43.413Z,14.48
2018-05-07T16:35:38.528Z,15.27
2018-05-07T16:41:33.399Z,21.79
2018-05-07T16:47:28.458Z,31.61
2018-05-07T16:53:23.416Z,38.27
2018-05-07T16:59:18.484Z,27.85
2018-05-07T17:05:13.465Z,21.16
2018-05-07T17:11:08.522Z,22.83
2018-05-07T17:17:03.453Z,15.36
2018-05-07T17:22:58.496Z,19.96
2018-05-07T17:28:53.439Z,25.99
2018-05-07T17:34:48.439Z,19.98
2018-05-07T17:40:43.472Z,20.35
2018-05-07T17:46:38.452Z,20.54
2018-05-07T17:52:33.486Z,24.63
2018-05-07T17:58:28.441Z,23.36
2018-05-07T18:04:23.494Z,23.62
2018-05-07T18:10:18.486Z,22.31
2018-05-07T18:16:13.548Z,20.72
2018-05-07T18:22:08.513Z,16.33
2018-05-07T18:28:03.490Z,14.13
2018-05-07T18:33:58.495Z,14.46
2018-05-07T18:39:53.541Z,14.45
2018-05-07T18:45:48.513Z,13.38
2018-05-07T18:51:43.480Z,13.36
2018-05-07T18:57:38.505Z,13.12
2018-05-07T19:03:33.536Z,12.99
2018-05-07T19:09:28.547Z,12.94
2018-05-07T19:15:23.528Z,14.14
2018-05-07T19:21:18.585Z,13.84
2018-05-07T19:27:13.566Z,13.52
2018-05-07T19:33:08.543Z,14.22
2018-05-07T19:39:03.547Z,12.79
2018-05-07T19:44:58.597Z,12.86
2018-05-07T19:50:53.541Z,12.55
2018-05-07T19:56:48.564Z,13.92
2018-05-07T20:02:43.618Z,15.93
2018-05-07T20:08:38.539Z,14.62
2018-05-07T20:14:33.612Z,14.04
2018-05-07T20:20:28.587Z,13.67
2018-05-07T20:26:23.588Z,13.77
2018-05-07T20:32:18.609Z,13.44
2018-05-07T20:38:13.629Z,14.33
2018-05-07T20:44:08.625Z,15.98
2018-05-07T20:50:03.596Z,14.58
2018-05-07T20:55:58.580Z,15.14
2018-05-07T21:01:53.619Z,14.02
2018-05-07T21:07:48.621Z,15.29
2018-05-07T21:13:43.648Z,15.49
2018-05-07T21:19:38.612Z,14.33
2018-05-07T21:25:33.622Z,15.37
2018-05-07T21:31:28.658Z,15.59
2018-05-07T21:37:23.625Z,15.02
2018-05-07T21:43:18.675Z,14.43
2018-05-07T21:49:13.621Z,14.69
2018-05-07T21:55:08.645Z,15.19
2018-05-07T22:01:03.715Z,14.94
2018-05-07T22:06:58.662Z,14.71
2018-05-07T22:12:53.655Z,15.23
2018-05-07T22:18:48.665Z,15.23
2018-05-07T22:24:43.669Z,13.82
2018-05-07T22:30:38.669Z,15.9
2018-05-07T22:36:33.639Z,16.81
2018-05-07T22:42:28.658Z,15.44
2018-05-07T22:48:23.655Z,17.43
2018-05-07T22:54:18.667Z,16.16
2018-05-07T23:00:13.691Z,16.96
2018-05-07T23:06:08.759Z,16.7
2018-05-07T23:12:03.690Z,16.65
2018-05-07T23:17:58.687Z,16.75
2018-05-07T23:23:53.724Z,16.01
2018-05-07T23:29:48.683Z,16.52
2018-05-07T23:35:43.775Z,15.86
2018-05-07T23:41:38.698Z,16.18
2018-05-07T23:47:33.704Z,15.14
2018-05-07T23:53:28.718Z,17.43
2018-05-07T23:59:23.691Z,16.14
